Dickinson, ND

5:38 PM MDT on June 22, 2017 (GMT -0600)
Southview | | Change Station
Active Advisory: Wind Advisory Active Notice: Public Information Statement

Elev 2434 ft 46.86 °N, 102.78 °W | Updated 17 seconds ago

Partly Cloudy
Partly Cloudy
70.0 °F
Feels Like 70.0 °F
N
18.0
Wind Variable Wind from NW

Today
High -- | Low -- °F
--% Chance of Precip.
Yesterday
High -- | Low -- °F
Precip. -- in
Pressure 29.84 in
Visibility 10.0 miles
Clouds Mostly Cloudy 10000 ft
Dew Point 32 °F
Humidity 25%
Rainfall 0.00 in
Snow Depth Not available.
4:56 AM 8:49 PM
Waning Crescent, 2% visible
METAR KDIK 222256Z AUTO 30024G35KT 10SM BKN100 22/M05 A2985 RMK AO2 PK WND 30040/2210 SLP104 T02171050
Pressure 29.84 in
Visibility 10.0 miles
Clouds Mostly Cloudy 10000 ft
Dew Point 32 °F
Humidity 25%
Rainfall 0.00 in
Snow Depth Not available.
4:56 AM 8:49 PM
Waning Crescent, 2% visible
METAR KDIK 222256Z AUTO 30024G35KT 10SM BKN100 22/M05 A2985 RMK AO2 PK WND 30040/2210 SLP104 T02171050

Get Your Daily Forecast Email!

Thanks for signing up!

Be on the lookout for a verification email in your inbox.

You'll start receiving severe weather alerts in your inbox..

×

10-Day Weather Forecast

Almanac

Astronomy

Jun. 22, 2017 Rise Set
Actual Time
Civil Twilight
Nautical Twilight
Astronomical Twilight
Moon
Length of Visible Light
Length of Day
Tomorrow will be .
, % of the Moon is Illuminated

Today's Extremes

State Highs State Lows

Community

WunderPhotos

Category 6

Welcome to Category 6. This is the collective home for Weather Underground's featured writeups by Dr. Jeff Masters (right), Bob Henson (left), Chris Burt, and other regular contributors.

Nearby

Air Quality

  Air Quality AQ Index Pollutant
Not available.

Snow Depth

Station Depth Elevation

Earthquake Activity

City Distance Mag. Time & Date
Minimum magnitude displayed is 2.5.

Coastal Water Temperatures

Place Temperature

Stations

Nearby Weather Stations

Station Location Temp. Windchill Dew Point Humidity Wind Precip. Elev Updated Type
                   

Watches & Warnings

Wind Advisory
Issued: 2:46 PM MDT Jun. 22, 2017 – National Weather Service

... Wind Advisory in effect until 10 PM CDT /9 PM MDT/ this
evening...

The National Weather Service in Bismarck has issued a Wind
Advisory, which is in effect until 10 PM CDT /9 PM MDT/ this
evening.

* Timing... this afternoon and evening.

* Winds... sustained winds to 30 mph and gusts to 45 mph.

* Impacts... difficult travel especially for those driving high
profile vehicles. Working on elevated structures will be
hazardous.

Precautionary/preparedness actions...

A Wind Advisory means that winds of 30 mph are expected. Winds
this strong can make driving difficult... especially for high
profile vehicles. Use extra caution.